NCAR-RAP Real-Time Weather Data

Output produced by METARs form (08 May 2021  02:04 UTC)
found at http://weather.rap.ucar.edu/surface/
 
KIAD 080052Z 30005KT 10SM FEW013 SCT027 BKN060 BKN130 10/08 A2990 RMK AO2 SLP123 T01000083
KIAD 080031Z 32007KT 10SM FEW013 SCT027 BKN060 BKN130 11/08 A2989 RMK AO2 T01060083
KIAD 072352Z 31007KT 10SM FEW007 SCT013 BKN025 BKN130 12/09 A2989 RMK AO2 RAE14 SLP121 P0001 60019 T01170094 10150 20111 51013
KIAD 072342Z 31007KT 10SM FEW007 SCT013 BKN025 BKN130 12/09 A2989 RMK AO2 RAE14 P0001 T01170094
KIAD 072252Z 34004KT 8SM -RA BKN013 OVC038 12/09 A2988 RMK AO2 SLP117 P0004 T01170094
KIAD 072239Z 34005KT 6SM -RA BKN013 OVC038 12/09 A2987 RMK AO2 P0003 T01170089
KIAD 072152Z 32008KT 10SM -RA SCT019 BKN036 OVC065 12/09 A2987 RMK AO2 LTG DSNT W RAE07B48 SLP113 P0000 T01220089
KIAD 072052Z 00000KT 10SM -RA FEW022 BKN060 OVC075 12/09 A2985 RMK AO2 SLP108 P0005 60014 T01220094 58001
KIAD 071952Z 21009KT 3SM RA BR SCT022 BKN032 OVC048 11/09 A2987 RMK AO2 SLP114 P0008 T01110094
KIAD 071852Z 25004KT 5SM -RA FEW027 BKN035 OVC055 13/09 A2986 RMK AO2 SLP111 P0001 T01280094
KIAD 071826Z VRB06KT 4SM RA SCT020 BKN030 OVC045 14/08 A2985 RMK AO2 LTG DSNT E P0000 T01440083
KIAD 071752Z 22008G16KT 8SM -RA SCT045 BKN055 OVC070 15/08 A2985 RMK AO2 RAB25 SLP109 P0000 60000 T01500078 10167 20100 58010
KIAD 071652Z 16007KT 10SM FEW020 BKN048 BKN090 OVC200 17/06 A2986 RMK AO2 SLP113 T01670061
KIAD 071552Z 17005KT 10SM FEW033 SCT080 BKN130 OVC170 16/06 A2988 RMK AO2 SLP119 T01560061
KIAD 071452Z 19006KT 10SM BKN085 BKN150 BKN230 15/07 A2988 RMK AO2 SLP118 T01500067 56005
KIAD 071352Z 00000KT 10SM SCT070 BKN150 BKN200 13/07 A2989 RMK AO2 SLP121 T01330072
KIAD 071252Z 28003KT 10SM BKN075 BKN160 BKN220 11/07 A2989 RMK AO2 SLP122 T01110072
KIAD 071152Z 00000KT 10SM BKN075 BKN150 BKN240 10/07 A2990 RMK AO2 SLP124 T01000072 10100 20050 55001
KIAD 071052Z 00000KT 10SM FEW080 BKN140 BKN250 08/07 A2990 RMK AO2 SLP122 T00780067